sensor_id;sensor_type;location;lat;lon;timestamp;temperature;humidity
16976;DHT22;8604;48.148;-1.786;2022-07-29T00:01:41;19.60;99.90
16976;DHT22;8604;48.148;-1.786;2022-07-29T00:04:10;19.60;99.90
16976;DHT22;8604;48.148;-1.786;2022-07-29T00:06:40;19.60;99.90
16976;DHT22;8604;48.148;-1.786;2022-07-29T00:09:10;19.60;99.90
16976;DHT22;8604;48.148;-1.786;2022-07-29T00:11:38;19.60;99.90
16976;DHT22;8604;48.148;-1.786;2022-07-29T00:14:07;19.60;99.90
16976;DHT22;8604;48.148;-1.786;2022-07-29T00:16:35;19.60;99.90
16976;DHT22;8604;48.148;-1.786;2022-07-29T00:19:04;19.60;99.90
16976;DHT22;8604;48.148;-1.786;2022-07-29T00:21:34;19.50;99.90
16976;DHT22;8604;48.148;-1.786;2022-07-29T00:24:02;19.50;99.90
16976;DHT22;8604;48.148;-1.786;2022-07-29T00:26:32;19.50;99.90
16976;DHT22;8604;48.148;-1.786;2022-07-29T00:29:02;19.50;99.90
16976;DHT22;8604;48.148;-1.786;2022-07-29T00:31:51;19.50;99.90
16976;DHT22;8604;48.148;-1.786;2022-07-29T00:34:19;19.50;99.90
16976;DHT22;8604;48.148;-1.786;2022-07-29T00:37:05;19.50;99.90
16976;DHT22;8604;48.148;-1.786;2022-07-29T00:39:34;19.50;99.90
16976;DHT22;8604;48.148;-1.786;2022-07-29T00:42:04;19.50;99.90
16976;DHT22;8604;48.148;-1.786;2022-07-29T00:44:36;19.50;99.90
16976;DHT22;8604;48.148;-1.786;2022-07-29T00:47:05;19.50;99.90
16976;DHT22;8604;48.148;-1.786;2022-07-29T00:49:34;19.50;99.90
16976;DHT22;8604;48.148;-1.786;2022-07-29T00:52:03;19.50;99.90
16976;DHT22;8604;48.148;-1.786;2022-07-29T00:54:33;19.50;99.90
16976;DHT22;8604;48.148;-1.786;2022-07-29T00:57:07;19.50;99.90
16976;DHT22;8604;48.148;-1.786;2022-07-29T00:59:35;19.50;99.90
16976;DHT22;8604;48.148;-1.786;2022-07-29T01:02:04;19.50;99.90
16976;DHT22;8604;48.148;-1.786;2022-07-29T01:04:32;19.40;99.90
16976;DHT22;8604;48.148;-1.786;2022-07-29T01:07:02;19.40;99.90
16976;DHT22;8604;48.148;-1.786;2022-07-29T01:09:31;19.40;99.90
16976;DHT22;8604;48.148;-1.786;2022-07-29T01:12:17;19.40;99.90
16976;DHT22;8604;48.148;-1.786;2022-07-29T01:14:46;19.40;99.90
16976;DHT22;8604;48.148;-1.786;2022-07-29T01:17:20;19.40;99.90
16976;DHT22;8604;48.148;-1.786;2022-07-29T01:19:56;19.40;99.90
16976;DHT22;8604;48.148;-1.786;2022-07-29T01:22:31;19.30;99.90
16976;DHT22;8604;48.148;-1.786;2022-07-29T01:25:22;19.40;99.90
16976;DHT22;8604;48.148;-1.786;2022-07-29T01:28:13;19.40;99.90
16976;DHT22;8604;48.148;-1.786;2022-07-29T01:30:51;19.30;99.90
16976;DHT22;8604;48.148;-1.786;2022-07-29T01:33:24;19.30;99.90
16976;DHT22;8604;48.148;-1.786;2022-07-29T01:36:31;19.30;99.90
16976;DHT22;8604;48.148;-1.786;2022-07-29T01:39:05;19.30;99.90
16976;DHT22;8604;48.148;-1.786;2022-07-29T01:41:37;19.30;99.90
16976;DHT22;8604;48.148;-1.786;2022-07-29T01:44:16;19.30;99.90
16976;DHT22;8604;48.148;-1.786;2022-07-29T01:46:50;19.30;99.90
16976;DHT22;8604;48.148;-1.786;2022-07-29T01:49:21;19.30;99.90
16976;DHT22;8604;48.148;-1.786;2022-07-29T01:51:54;19.30;99.90
16976;DHT22;8604;48.148;-1.786;2022-07-29T01:54:30;19.30;99.90
16976;DHT22;8604;48.148;-1.786;2022-07-29T01:57:00;19.30;99.90
16976;DHT22;8604;48.148;-1.786;2022-07-29T01:59:30;19.30;99.90
16976;DHT22;8604;48.148;-1.786;2022-07-29T02:02:01;19.30;99.90
16976;DHT22;8604;48.148;-1.786;2022-07-29T02:04:31;19.30;99.90
16976;DHT22;8604;48.148;-1.786;2022-07-29T02:07:05;19.30;99.90
16976;DHT22;8604;48.148;-1.786;2022-07-29T02:09:36;19.20;99.90
16976;DHT22;8604;48.148;-1.786;2022-07-29T02:12:06;19.30;99.90
16976;DHT22;8604;48.148;-1.786;2022-07-29T02:14:39;19.30;99.90
16976;DHT22;8604;48.148;-1.786;2022-07-29T02:17:10;19.30;99.90
16976;DHT22;8604;48.148;-1.786;2022-07-29T02:19:41;19.30;99.90
16976;DHT22;8604;48.148;-1.786;2022-07-29T02:22:10;19.30;99.90
16976;DHT22;8604;48.148;-1.786;2022-07-29T02:24:41;19.30;99.90
16976;DHT22;8604;48.148;-1.786;2022-07-29T02:27:10;19.30;99.90
16976;DHT22;8604;48.148;-1.786;2022-07-29T02:29:40;19.30;99.90
16976;DHT22;8604;48.148;-1.786;2022-07-29T02:32:10;19.30;99.90
16976;DHT22;8604;48.148;-1.786;2022-07-29T02:34:39;19.30;99.90
16976;DHT22;8604;48.148;-1.786;2022-07-29T02:37:10;19.30;99.90
16976;DHT22;8604;48.148;-1.786;2022-07-29T02:39:41;19.30;99.90
16976;DHT22;8604;48.148;-1.786;2022-07-29T02:42:13;19.30;99.90
16976;DHT22;8604;48.148;-1.786;2022-07-29T02:44:43;19.30;99.90
16976;DHT22;8604;48.148;-1.786;2022-07-29T02:47:19;19.30;99.90
16976;DHT22;8604;48.148;-1.786;2022-07-29T02:49:53;19.30;99.90
16976;DHT22;8604;48.148;-1.786;2022-07-29T02:52:26;19.20;99.90
16976;DHT22;8604;48.148;-1.786;2022-07-29T02:55:01;19.20;99.90
16976;DHT22;8604;48.148;-1.786;2022-07-29T02:57:34;19.20;99.90
16976;DHT22;8604;48.148;-1.786;2022-07-29T03:00:22;19.10;99.90
16976;DHT22;8604;48.148;-1.786;2022-07-29T03:02:56;19.10;99.90
16976;DHT22;8604;48.148;-1.786;2022-07-29T03:05:25;19.20;99.90
16976;DHT22;8604;48.148;-1.786;2022-07-29T03:07:56;19.20;99.90
16976;DHT22;8604;48.148;-1.786;2022-07-29T03:10:26;19.20;99.90
16976;DHT22;8604;48.148;-1.786;2022-07-29T03:12:55;19.20;99.90
16976;DHT22;8604;48.148;-1.786;2022-07-29T03:15:25;19.20;99.90
16976;DHT22;8604;48.148;-1.786;2022-07-29T03:17:55;19.20;99.90
16976;DHT22;8604;48.148;-1.786;2022-07-29T03:20:25;19.20;99.90
16976;DHT22;8604;48.148;-1.786;2022-07-29T03:22:53;19.20;99.90
16976;DHT22;8604;48.148;-1.786;2022-07-29T03:25:22;19.20;99.90
16976;DHT22;8604;48.148;-1.786;2022-07-29T03:27:50;19.20;99.90
16976;DHT22;8604;48.148;-1.786;2022-07-29T03:30:18;19.20;99.90
16976;DHT22;8604;48.148;-1.786;2022-07-29T03:32:48;19.20;99.90
16976;DHT22;8604;48.148;-1.786;2022-07-29T03:35:19;19.20;99.90
16976;DHT22;8604;48.148;-1.786;2022-07-29T03:37:48;19.20;99.90
16976;DHT22;8604;48.148;-1.786;2022-07-29T03:40:21;19.20;99.90
16976;DHT22;8604;48.148;-1.786;2022-07-29T03:42:51;19.20;99.90
16976;DHT22;8604;48.148;-1.786;2022-07-29T03:45:22;19.20;99.90
16976;DHT22;8604;48.148;-1.786;2022-07-29T03:47:55;19.20;99.90
16976;DHT22;8604;48.148;-1.786;2022-07-29T03:50:29;19.20;99.90
16976;DHT22;8604;48.148;-1.786;2022-07-29T03:52:59;19.20;99.90
16976;DHT22;8604;48.148;-1.786;2022-07-29T03:55:29;19.20;99.90
16976;DHT22;8604;48.148;-1.786;2022-07-29T03:58:00;19.10;99.90
16976;DHT22;8604;48.148;-1.786;2022-07-29T04:00:30;19.10;99.90
16976;DHT22;8604;48.148;-1.786;2022-07-29T04:02:59;19.20;99.90
16976;DHT22;8604;48.148;-1.786;2022-07-29T04:05:29;19.10;99.90
16976;DHT22;8604;48.148;-1.786;2022-07-29T04:07:57;19.10;99.90
16976;DHT22;8604;48.148;-1.786;2022-07-29T04:10:25;19.10;99.90
16976;DHT22;8604;48.148;-1.786;2022-07-29T04:12:58;19.10;99.90
16976;DHT22;8604;48.148;-1.786;2022-07-29T04:15:27;19.10;99.90
16976;DHT22;8604;48.148;-1.786;2022-07-29T04:17:57;19.20;99.90
16976;DHT22;8604;48.148;-1.786;2022-07-29T04:20:26;19.20;99.90
16976;DHT22;8604;48.148;-1.786;2022-07-29T04:22:56;19.20;99.90
16976;DHT22;8604;48.148;-1.786;2022-07-29T04:25:24;19.20;99.90
16976;DHT22;8604;48.148;-1.786;2022-07-29T04:27:52;19.10;99.90
16976;DHT22;8604;48.148;-1.786;2022-07-29T04:30:31;19.10;99.90
16976;DHT22;8604;48.148;-1.786;2022-07-29T04:33:00;19.10;99.90
16976;DHT22;8604;48.148;-1.786;2022-07-29T04:35:29;19.20;99.90
16976;DHT22;8604;48.148;-1.786;2022-07-29T04:38:06;19.10;99.90
16976;DHT22;8604;48.148;-1.786;2022-07-29T04:40:43;19.10;99.90
16976;DHT22;8604;48.148;-1.786;2022-07-29T04:43:13;19.10;99.90
16976;DHT22;8604;48.148;-1.786;2022-07-29T04:45:48;19.10;99.90
16976;DHT22;8604;48.148;-1.786;2022-07-29T04:48:17;19.10;99.90
16976;DHT22;8604;48.148;-1.786;2022-07-29T04:50:49;19.10;99.90
16976;DHT22;8604;48.148;-1.786;2022-07-29T04:53:18;19.10;99.90
16976;DHT22;8604;48.148;-1.786;2022-07-29T04:55:46;19.20;99.90
16976;DHT22;8604;48.148;-1.786;2022-07-29T04:58:15;19.10;99.90
16976;DHT22;8604;48.148;-1.786;2022-07-29T05:00:43;19.20;99.90
16976;DHT22;8604;48.148;-1.786;2022-07-29T05:03:12;19.20;99.90
16976;DHT22;8604;48.148;-1.786;2022-07-29T05:05:40;19.20;99.90
16976;DHT22;8604;48.148;-1.786;2022-07-29T05:08:09;19.20;99.90
16976;DHT22;8604;48.148;-1.786;2022-07-29T05:10:38;19.20;99.90
16976;DHT22;8604;48.148;-1.786;2022-07-29T05:13:07;19.30;99.90
16976;DHT22;8604;48.148;-1.786;2022-07-29T05:15:36;19.20;99.90
16976;DHT22;8604;48.148;-1.786;2022-07-29T05:18:05;19.20;99.90
16976;DHT22;8604;48.148;-1.786;2022-07-29T05:20:33;19.30;99.90
16976;DHT22;8604;48.148;-1.786;2022-07-29T05:23:02;19.30;99.90
16976;DHT22;8604;48.148;-1.786;2022-07-29T05:25:30;19.30;99.90
16976;DHT22;8604;48.148;-1.786;2022-07-29T05:28:12;19.40;99.90
16976;DHT22;8604;48.148;-1.786;2022-07-29T05:30:41;19.50;99.90
16976;DHT22;8604;48.148;-1.786;2022-07-29T05:33:11;19.50;99.90
16976;DHT22;8604;48.148;-1.786;2022-07-29T05:35:59;19.50;99.90
16976;DHT22;8604;48.148;-1.786;2022-07-29T05:38:28;19.60;99.90
16976;DHT22;8604;48.148;-1.786;2022-07-29T05:40:57;19.60;99.90
16976;DHT22;8604;48.148;-1.786;2022-07-29T05:43:28;19.60;99.90
16976;DHT22;8604;48.148;-1.786;2022-07-29T05:45:57;19.60;99.90
16976;DHT22;8604;48.148;-1.786;2022-07-29T05:48:25;19.60;99.90
16976;DHT22;8604;48.148;-1.786;2022-07-29T05:50:54;19.70;99.90
16976;DHT22;8604;48.148;-1.786;2022-07-29T05:53:22;19.70;99.90
16976;DHT22;8604;48.148;-1.786;2022-07-29T05:55:51;19.70;99.90
16976;DHT22;8604;48.148;-1.786;2022-07-29T05:58:19;19.70;99.90
16976;DHT22;8604;48.148;-1.786;2022-07-29T06:00:49;19.80;99.90
16976;DHT22;8604;48.148;-1.786;2022-07-29T06:03:17;19.80;99.90
16976;DHT22;8604;48.148;-1.786;2022-07-29T06:05:46;19.90;99.90
16976;DHT22;8604;48.148;-1.786;2022-07-29T06:08:14;19.90;99.90
16976;DHT22;8604;48.148;-1.786;2022-07-29T06:10:43;20.00;99.90
16976;DHT22;8604;48.148;-1.786;2022-07-29T06:13:13;20.00;99.90
16976;DHT22;8604;48.148;-1.786;2022-07-29T06:15:42;20.00;99.90
16976;DHT22;8604;48.148;-1.786;2022-07-29T06:18:13;20.10;99.90
16976;DHT22;8604;48.148;-1.786;2022-07-29T06:20:46;20.10;99.90
16976;DHT22;8604;48.148;-1.786;2022-07-29T06:23:14;20.20;99.90
16976;DHT22;8604;48.148;-1.786;2022-07-29T06:25:42;20.20;99.90
16976;DHT22;8604;48.148;-1.786;2022-07-29T06:28:11;20.30;99.90
16976;DHT22;8604;48.148;-1.786;2022-07-29T06:30:39;20.30;99.90
16976;DHT22;8604;48.148;-1.786;2022-07-29T06:33:08;20.40;99.90
16976;DHT22;8604;48.148;-1.786;2022-07-29T06:35:38;20.50;99.90
16976;DHT22;8604;48.148;-1.786;2022-07-29T06:38:19;20.60;99.90
16976;DHT22;8604;48.148;-1.786;2022-07-29T06:40:58;20.70;99.90
16976;DHT22;8604;48.148;-1.786;2022-07-29T06:43:31;20.90;99.90
16976;DHT22;8604;48.148;-1.786;2022-07-29T06:46:02;20.90;99.90
16976;DHT22;8604;48.148;-1.786;2022-07-29T06:48:31;21.00;99.90
16976;DHT22;8604;48.148;-1.786;2022-07-29T06:51:00;21.20;99.90
16976;DHT22;8604;48.148;-1.786;2022-07-29T06:53:29;21.30;99.90
16976;DHT22;8604;48.148;-1.786;2022-07-29T06:55:58;21.40;99.90
16976;DHT22;8604;48.148;-1.786;2022-07-29T06:58:27;21.50;99.90
16976;DHT22;8604;48.148;-1.786;2022-07-29T07:00:56;21.60;99.90
16976;DHT22;8604;48.148;-1.786;2022-07-29T07:03:25;21.80;99.90
16976;DHT22;8604;48.148;-1.786;2022-07-29T07:05:54;22.00;99.90
16976;DHT22;8604;48.148;-1.786;2022-07-29T07:08:24;22.10;99.90
16976;DHT22;8604;48.148;-1.786;2022-07-29T07:10:52;22.20;99.90
16976;DHT22;8604;48.148;-1.786;2022-07-29T07:13:22;22.40;99.90
16976;DHT22;8604;48.148;-1.786;2022-07-29T07:15:50;22.40;99.90
16976;DHT22;8604;48.148;-1.786;2022-07-29T07:18:19;22.50;99.90
16976;DHT22;8604;48.148;-1.786;2022-07-29T07:20:47;22.50;99.90
16976;DHT22;8604;48.148;-1.786;2022-07-29T07:23:15;22.60;99.90
16976;DHT22;8604;48.148;-1.786;2022-07-29T07:25:45;22.60;99.90
16976;DHT22;8604;48.148;-1.786;2022-07-29T07:28:14;22.80;99.90
16976;DHT22;8604;48.148;-1.786;2022-07-29T07:30:42;22.80;99.90
16976;DHT22;8604;48.148;-1.786;2022-07-29T07:33:10;23.00;99.90
16976;DHT22;8604;48.148;-1.786;2022-07-29T07:35:39;23.00;99.90
16976;DHT22;8604;48.148;-1.786;2022-07-29T07:38:07;23.20;99.90
16976;DHT22;8604;48.148;-1.786;2022-07-29T07:40:36;23.30;99.90
16976;DHT22;8604;48.148;-1.786;2022-07-29T07:43:05;23.50;99.90
16976;DHT22;8604;48.148;-1.786;2022-07-29T07:45:34;23.60;99.90
16976;DHT22;8604;48.148;-1.786;2022-07-29T07:48:04;23.60;99.90
16976;DHT22;8604;48.148;-1.786;2022-07-29T07:50:33;23.80;99.90
16976;DHT22;8604;48.148;-1.786;2022-07-29T07:53:03;24.00;99.90
16976;DHT22;8604;48.148;-1.786;2022-07-29T07:55:31;24.20;99.90
16976;DHT22;8604;48.148;-1.786;2022-07-29T07:58:21;24.40;99.90
16976;DHT22;8604;48.148;-1.786;2022-07-29T08:00:49;24.70;99.90
16976;DHT22;8604;48.148;-1.786;2022-07-29T08:03:17;24.80;99.90
16976;DHT22;8604;48.148;-1.786;2022-07-29T08:05:46;25.10;99.90
16976;DHT22;8604;48.148;-1.786;2022-07-29T08:08:15;25.40;99.90
16976;DHT22;8604;48.148;-1.786;2022-07-29T08:10:43;25.70;99.90
16976;DHT22;8604;48.148;-1.786;2022-07-29T08:13:23;26.10;99.90
16976;DHT22;8604;48.148;-1.786;2022-07-29T08:15:54;26.40;99.90
16976;DHT22;8604;48.148;-1.786;2022-07-29T08:18:28;26.70;99.90
16976;DHT22;8604;48.148;-1.786;2022-07-29T08:20:58;27.30;99.90
16976;DHT22;8604;48.148;-1.786;2022-07-29T08:23:26;27.80;99.90
16976;DHT22;8604;48.148;-1.786;2022-07-29T08:26:15;27.90;99.90
16976;DHT22;8604;48.148;-1.786;2022-07-29T08:28:46;28.10;99.90
16976;DHT22;8604;48.148;-1.786;2022-07-29T08:31:17;28.00;99.90
16976;DHT22;8604;48.148;-1.786;2022-07-29T08:33:45;28.00;99.90
16976;DHT22;8604;48.148;-1.786;2022-07-29T08:36:14;27.90;99.90
16976;DHT22;8604;48.148;-1.786;2022-07-29T08:38:42;27.70;99.90
16976;DHT22;8604;48.148;-1.786;2022-07-29T08:41:10;27.60;99.90
16976;DHT22;8604;48.148;-1.786;2022-07-29T08:43:39;27.50;99.90
16976;DHT22;8604;48.148;-1.786;2022-07-29T08:46:10;27.30;99.90
16976;DHT22;8604;48.148;-1.786;2022-07-29T08:48:39;27.00;99.90
16976;DHT22;8604;48.148;-1.786;2022-07-29T08:51:13;26.80;99.90
16976;DHT22;8604;48.148;-1.786;2022-07-29T08:53:43;26.60;99.90
16976;DHT22;8604;48.148;-1.786;2022-07-29T08:56:12;26.60;99.90
16976;DHT22;8604;48.148;-1.786;2022-07-29T08:58:41;26.60;99.90
16976;DHT22;8604;48.148;-1.786;2022-07-29T09:01:22;26.60;99.90
16976;DHT22;8604;48.148;-1.786;2022-07-29T09:04:04;26.60;99.90
16976;DHT22;8604;48.148;-1.786;2022-07-29T09:06:36;26.50;99.90
16976;DHT22;8604;48.148;-1.786;2022-07-29T09:09:05;26.60;99.90
16976;DHT22;8604;48.148;-1.786;2022-07-29T09:11:35;26.60;99.90
16976;DHT22;8604;48.148;-1.786;2022-07-29T09:14:04;26.50;99.90
16976;DHT22;8604;48.148;-1.786;2022-07-29T09:16:51;26.50;99.90
16976;DHT22;8604;48.148;-1.786;2022-07-29T09:19:29;26.60;99.90
16976;DHT22;8604;48.148;-1.786;2022-07-29T09:21:59;26.60;99.90
16976;DHT22;8604;48.148;-1.786;2022-07-29T09:24:43;26.50;99.90
16976;DHT22;8604;48.148;-1.786;2022-07-29T09:27:21;26.50;99.90
16976;DHT22;8604;48.148;-1.786;2022-07-29T09:29:57;26.50;99.90
16976;DHT22;8604;48.148;-1.786;2022-07-29T09:32:27;26.40;99.90
16976;DHT22;8604;48.148;-1.786;2022-07-29T09:35:17;26.30;99.90
16976;DHT22;8604;48.148;-1.786;2022-07-29T09:37:46;26.10;99.90
16976;DHT22;8604;48.148;-1.786;2022-07-29T09:40:16;26.10;99.90
16976;DHT22;8604;48.148;-1.786;2022-07-29T09:42:46;26.10;99.90
16976;DHT22;8604;48.148;-1.786;2022-07-29T09:45:27;26.00;99.90
16976;DHT22;8604;48.148;-1.786;2022-07-29T09:47:59;26.00;99.90
16976;DHT22;8604;48.148;-1.786;2022-07-29T09:50:37;25.90;99.90
16976;DHT22;8604;48.148;-1.786;2022-07-29T09:53:07;26.00;99.90
16976;DHT22;8604;48.148;-1.786;2022-07-29T09:55:47;25.90;99.90
16976;DHT22;8604;48.148;-1.786;2022-07-29T09:58:18;25.90;99.90
16976;DHT22;8604;48.148;-1.786;2022-07-29T10:00:48;25.90;99.90
16976;DHT22;8604;48.148;-1.786;2022-07-29T10:03:18;25.90;99.90
16976;DHT22;8604;48.148;-1.786;2022-07-29T10:06:05;26.00;99.90
16976;DHT22;8604;48.148;-1.786;2022-07-29T10:08:35;26.00;99.90
16976;DHT22;8604;48.148;-1.786;2022-07-29T10:11:10;26.00;99.90
16976;DHT22;8604;48.148;-1.786;2022-07-29T10:13:39;26.00;99.90
16976;DHT22;8604;48.148;-1.786;2022-07-29T10:16:09;26.10;99.90
16976;DHT22;8604;48.148;-1.786;2022-07-29T10:18:42;26.10;99.90
16976;DHT22;8604;48.148;-1.786;2022-07-29T10:21:11;26.20;99.90
16976;DHT22;8604;48.148;-1.786;2022-07-29T10:24:01;26.30;99.90
16976;DHT22;8604;48.148;-1.786;2022-07-29T10:26:30;26.30;99.90
16976;DHT22;8604;48.148;-1.786;2022-07-29T10:28:58;26.50;99.90
16976;DHT22;8604;48.148;-1.786;2022-07-29T10:31:33;26.50;99.90
16976;DHT22;8604;48.148;-1.786;2022-07-29T10:34:10;26.60;99.90
16976;DHT22;8604;48.148;-1.786;2022-07-29T10:36:50;26.70;99.90
16976;DHT22;8604;48.148;-1.786;2022-07-29T10:39:37;26.80;99.90
16976;DHT22;8604;48.148;-1.786;2022-07-29T10:42:18;26.90;99.90
16976;DHT22;8604;48.148;-1.786;2022-07-29T10:45:01;26.90;99.90
16976;DHT22;8604;48.148;-1.786;2022-07-29T10:47:31;27.00;99.90
16976;DHT22;8604;48.148;-1.786;2022-07-29T10:50:04;27.10;99.90
16976;DHT22;8604;48.148;-1.786;2022-07-29T10:52:55;27.30;99.90
16976;DHT22;8604;48.148;-1.786;2022-07-29T10:55:32;27.50;99.90
16976;DHT22;8604;48.148;-1.786;2022-07-29T10:58:13;27.50;99.90
16976;DHT22;8604;48.148;-1.786;2022-07-29T11:00:44;27.60;99.90
16976;DHT22;8604;48.148;-1.786;2022-07-29T11:03:42;27.70;99.90
16976;DHT22;8604;48.148;-1.786;2022-07-29T11:06:19;28.00;99.90
16976;DHT22;8604;48.148;-1.786;2022-07-29T11:09:16;28.10;99.90
16976;DHT22;8604;48.148;-1.786;2022-07-29T11:11:46;28.50;99.90
16976;DHT22;8604;48.148;-1.786;2022-07-29T11:14:18;28.90;99.90
16976;DHT22;8604;48.148;-1.786;2022-07-29T11:17:00;29.50;99.90
16976;DHT22;8604;48.148;-1.786;2022-07-29T11:19:34;30.20;99.90
16976;DHT22;8604;48.148;-1.786;2022-07-29T11:22:34;30.60;99.90
16976;DHT22;8604;48.148;-1.786;2022-07-29T11:25:12;31.60;99.90
16976;DHT22;8604;48.148;-1.786;2022-07-29T11:27:44;31.60;99.90
16976;DHT22;8604;48.148;-1.786;2022-07-29T11:30:14;31.90;99.90
16976;DHT22;8604;48.148;-1.786;2022-07-29T11:32:44;32.30;99.90
16976;DHT22;8604;48.148;-1.786;2022-07-29T11:35:16;32.40;99.90
16976;DHT22;8604;48.148;-1.786;2022-07-29T11:38:25;32.50;99.70
16976;DHT22;8604;48.148;-1.786;2022-07-29T11:41:20;32.50;99.90
16976;DHT22;8604;48.148;-1.786;2022-07-29T11:43:50;32.70;99.60
16976;DHT22;8604;48.148;-1.786;2022-07-29T11:46:43;32.80;99.40
16976;DHT22;8604;48.148;-1.786;2022-07-29T11:49:13;32.70;99.00
16976;DHT22;8604;48.148;-1.786;2022-07-29T11:51:51;32.80;99.10
16976;DHT22;8604;48.148;-1.786;2022-07-29T11:54:26;32.80;98.80
16976;DHT22;8604;48.148;-1.786;2022-07-29T11:56:58;32.90;99.10
16976;DHT22;8604;48.148;-1.786;2022-07-29T11:59:28;33.30;99.50
16976;DHT22;8604;48.148;-1.786;2022-07-29T12:02:01;33.30;97.60
16976;DHT22;8604;48.148;-1.786;2022-07-29T12:04:50;33.20;98.50
16976;DHT22;8604;48.148;-1.786;2022-07-29T12:07:26;33.20;98.70
16976;DHT22;8604;48.148;-1.786;2022-07-29T12:10:04;33.40;98.70
16976;DHT22;8604;48.148;-1.786;2022-07-29T12:12:37;33.50;98.40
16976;DHT22;8604;48.148;-1.786;2022-07-29T12:15:17;33.40;98.00
16976;DHT22;8604;48.148;-1.786;2022-07-29T12:17:48;33.50;98.20
16976;DHT22;8604;48.148;-1.786;2022-07-29T12:20:22;33.40;98.10
16976;DHT22;8604;48.148;-1.786;2022-07-29T12:22:54;33.20;98.40
16976;DHT22;8604;48.148;-1.786;2022-07-29T12:25:24;33.30;98.60
16976;DHT22;8604;48.148;-1.786;2022-07-29T12:28:03;33.30;98.20
16976;DHT22;8604;48.148;-1.786;2022-07-29T12:30:44;33.00;98.40
16976;DHT22;8604;48.148;-1.786;2022-07-29T12:33:15;32.60;98.30
16976;DHT22;8604;48.148;-1.786;2022-07-29T12:35:47;32.70;98.50
16976;DHT22;8604;48.148;-1.786;2022-07-29T12:38:33;32.50;98.30
16976;DHT22;8604;48.148;-1.786;2022-07-29T12:41:04;32.60;98.30
16976;DHT22;8604;48.148;-1.786;2022-07-29T12:43:32;32.70;98.70
16976;DHT22;8604;48.148;-1.786;2022-07-29T12:46:12;33.00;98.40
16976;DHT22;8604;48.148;-1.786;2022-07-29T12:48:42;33.30;98.20
16976;DHT22;8604;48.148;-1.786;2022-07-29T12:51:11;33.40;97.80
16976;DHT22;8604;48.148;-1.786;2022-07-29T12:53:41;33.30;97.80
16976;DHT22;8604;48.148;-1.786;2022-07-29T12:56:30;33.20;98.10
16976;DHT22;8604;48.148;-1.786;2022-07-29T12:59:15;33.00;98.60
16976;DHT22;8604;48.148;-1.786;2022-07-29T13:01:45;32.80;98.60
16976;DHT22;8604;48.148;-1.786;2022-07-29T13:04:24;32.80;98.60
16976;DHT22;8604;48.148;-1.786;2022-07-29T13:07:00;32.80;98.60
16976;DHT22;8604;48.148;-1.786;2022-07-29T13:09:38;32.90;97.80
16976;DHT22;8604;48.148;-1.786;2022-07-29T13:12:11;32.90;98.30
16976;DHT22;8604;48.148;-1.786;2022-07-29T13:14:40;32.70;98.50
16976;DHT22;8604;48.148;-1.786;2022-07-29T13:17:11;32.60;98.50
16976;DHT22;8604;48.148;-1.786;2022-07-29T13:19:42;32.30;98.40
16976;DHT22;8604;48.148;-1.786;2022-07-29T13:22:13;32.10;98.70
16976;DHT22;8604;48.148;-1.786;2022-07-29T13:24:46;32.00;98.90
16976;DHT22;8604;48.148;-1.786;2022-07-29T13:27:16;31.90;98.80
16976;DHT22;8604;48.148;-1.786;2022-07-29T13:29:45;31.90;99.20
16976;DHT22;8604;48.148;-1.786;2022-07-29T13:32:13;31.80;99.00
16976;DHT22;8604;48.148;-1.786;2022-07-29T13:34:42;31.60;99.00
16976;DHT22;8604;48.148;-1.786;2022-07-29T13:37:10;31.60;98.90
16976;DHT22;8604;48.148;-1.786;2022-07-29T13:39:39;31.60;99.20
16976;DHT22;8604;48.148;-1.786;2022-07-29T13:42:20;31.70;98.80
16976;DHT22;8604;48.148;-1.786;2022-07-29T13:44:49;31.70;98.90
16976;DHT22;8604;48.148;-1.786;2022-07-29T13:47:18;31.50;98.60
16976;DHT22;8604;48.148;-1.786;2022-07-29T13:49:47;31.50;98.70
16976;DHT22;8604;48.148;-1.786;2022-07-29T13:52:15;31.60;98.50
16976;DHT22;8604;48.148;-1.786;2022-07-29T13:54:43;31.70;98.40
16976;DHT22;8604;48.148;-1.786;2022-07-29T13:57:12;31.50;98.30
16976;DHT22;8604;48.148;-1.786;2022-07-29T13:59:43;31.50;98.30
16976;DHT22;8604;48.148;-1.786;2022-07-29T14:02:18;31.30;98.40
16976;DHT22;8604;48.148;-1.786;2022-07-29T14:04:46;31.30;98.30
16976;DHT22;8604;48.148;-1.786;2022-07-29T14:07:14;31.30;98.80
16976;DHT22;8604;48.148;-1.786;2022-07-29T14:09:43;31.30;98.70
16976;DHT22;8604;48.148;-1.786;2022-07-29T14:12:11;31.30;98.60
16976;DHT22;8604;48.148;-1.786;2022-07-29T14:14:40;31.30;98.30
16976;DHT22;8604;48.148;-1.786;2022-07-29T14:17:10;31.30;98.40
16976;DHT22;8604;48.148;-1.786;2022-07-29T14:19:38;31.30;99.10
16976;DHT22;8604;48.148;-1.786;2022-07-29T14:22:08;31.50;98.90
16976;DHT22;8604;48.148;-1.786;2022-07-29T14:24:37;31.60;98.40
16976;DHT22;8604;48.148;-1.786;2022-07-29T14:27:05;31.70;98.30
16976;DHT22;8604;48.148;-1.786;2022-07-29T14:29:34;31.70;98.00
16976;DHT22;8604;48.148;-1.786;2022-07-29T14:32:04;31.60;98.00
16976;DHT22;8604;48.148;-1.786;2022-07-29T14:34:36;31.50;98.10
16976;DHT22;8604;48.148;-1.786;2022-07-29T14:37:05;31.30;97.30
16976;DHT22;8604;48.148;-1.786;2022-07-29T14:39:35;31.10;97.50
16976;DHT22;8604;48.148;-1.786;2022-07-29T14:42:09;31.10;97.80
16976;DHT22;8604;48.148;-1.786;2022-07-29T14:44:39;31.00;98.00
16976;DHT22;8604;48.148;-1.786;2022-07-29T14:47:08;31.00;98.40
16976;DHT22;8604;48.148;-1.786;2022-07-29T14:49:38;31.10;98.60
16976;DHT22;8604;48.148;-1.786;2022-07-29T14:52:07;31.20;98.50
16976;DHT22;8604;48.148;-1.786;2022-07-29T14:54:35;31.40;97.90
16976;DHT22;8604;48.148;-1.786;2022-07-29T14:57:04;31.20;98.10
16976;DHT22;8604;48.148;-1.786;2022-07-29T14:59:32;31.20;98.20
16976;DHT22;8604;48.148;-1.786;2022-07-29T15:02:01;31.20;98.10
16976;DHT22;8604;48.148;-1.786;2022-07-29T15:04:30;31.30;98.10
16976;DHT22;8604;48.148;-1.786;2022-07-29T15:07:00;31.20;97.80
16976;DHT22;8604;48.148;-1.786;2022-07-29T15:09:28;31.10;97.50
16976;DHT22;8604;48.148;-1.786;2022-07-29T15:11:56;31.10;98.20
16976;DHT22;8604;48.148;-1.786;2022-07-29T15:14:25;31.00;98.30
16976;DHT22;8604;48.148;-1.786;2022-07-29T15:16:54;31.10;98.50
16976;DHT22;8604;48.148;-1.786;2022-07-29T15:19:23;31.00;98.50
16976;DHT22;8604;48.148;-1.786;2022-07-29T15:21:51;30.90;98.30
16976;DHT22;8604;48.148;-1.786;2022-07-29T15:24:24;31.00;98.20
16976;DHT22;8604;48.148;-1.786;2022-07-29T15:26:52;31.00;98.60
16976;DHT22;8604;48.148;-1.786;2022-07-29T15:29:20;31.00;98.10
16976;DHT22;8604;48.148;-1.786;2022-07-29T15:31:49;30.90;98.10
16976;DHT22;8604;48.148;-1.786;2022-07-29T15:34:17;30.90;98.70
16976;DHT22;8604;48.148;-1.786;2022-07-29T15:36:47;30.80;98.50
16976;DHT22;8604;48.148;-1.786;2022-07-29T15:39:19;30.80;98.20
16976;DHT22;8604;48.148;-1.786;2022-07-29T15:41:49;30.70;98.30
16976;DHT22;8604;48.148;-1.786;2022-07-29T15:44:18;30.70;98.70
16976;DHT22;8604;48.148;-1.786;2022-07-29T15:46:47;30.70;98.60
16976;DHT22;8604;48.148;-1.786;2022-07-29T15:49:33;30.60;98.80
16976;DHT22;8604;48.148;-1.786;2022-07-29T15:52:16;30.50;98.60
16976;DHT22;8604;48.148;-1.786;2022-07-29T15:54:52;30.40;99.00
16976;DHT22;8604;48.148;-1.786;2022-07-29T15:57:23;30.50;99.40
16976;DHT22;8604;48.148;-1.786;2022-07-29T15:59:52;30.30;98.90
16976;DHT22;8604;48.148;-1.786;2022-07-29T16:02:20;30.10;98.70